Time;durP1;ratioP1;P1;durP2;ratioP2;P2;SDS_P1;SDS_P2;PMS_P1;PMS_P2;Temp;Humidity;BMP_temperature;BMP_pressure;BME280_temperature;BME280_humidity;BME280_pressure;Samples;Min_cycle;Max_cycle;Signal;HPM_P1;HPM_P2
2022/08/05 00:01:35;;;;;;;12.70;7.20;;;16.90;99.90;;;;;;5007593;28;20049;-42
2022/08/05 00:04:01;;;;;;;9.40;5.07;;;16.80;99.90;;;;;;5008116;28;20038;-41
2022/08/05 00:06:26;;;;;;;6.82;5.10;;;16.80;99.90;;;;;;5007646;28;20037;-41
2022/08/05 00:08:52;;;;;;;10.00;5.47;;;16.70;99.90;;;;;;5008102;28;20048;-41
2022/08/05 00:11:18;;;;;;;11.82;5.78;;;16.70;99.90;;;;;;5007682;28;20136;-41
2022/08/05 00:13:44;;;;;;;11.32;5.97;;;16.60;99.90;;;;;;5007984;28;20054;-42
2022/08/05 00:16:12;;;;;;;9.75;5.47;;;16.60;99.90;;;;;;5007659;28;20049;-41
2022/08/05 00:18:38;;;;;;;7.63;5.43;;;16.60;99.90;;;;;;5007717;28;20042;-42
2022/08/05 00:21:05;;;;;;;7.38;4.78;;;16.60;99.90;;;;;;5007825;28;20046;-41
2022/08/05 00:23:30;;;;;;;6.75;4.45;;;16.60;99.90;;;;;;5007413;28;20038;-41
2022/08/05 00:25:56;;;;;;;7.45;5.15;;;16.60;99.90;;;;;;5007441;28;20355;-41
2022/08/05 00:28:22;;;;;;;8.45;5.03;;;16.60;99.90;;;;;;5007428;28;20084;-42
2022/08/05 00:30:47;;;;;;;7.75;5.00;;;16.60;99.90;;;;;;5007626;28;20156;-42
2022/08/05 00:33:15;;;;;;;11.50;5.47;;;16.70;99.90;;;;;;5007690;28;20053;-41
2022/08/05 00:35:41;;;;;;;9.02;5.05;;;16.70;99.90;;;;;;5007395;28;20034;-41
2022/08/05 00:38:06;;;;;;;8.88;5.63;;;16.70;99.90;;;;;;5007533;28;20503;-41
2022/08/05 00:40:32;;;;;;;9.70;5.72;;;16.70;99.90;;;;;;5007221;28;20529;-41
2022/08/05 00:43:01;;;;;;;8.80;4.82;;;16.60;99.90;;;;;;5007566;28;20081;-41
2022/08/05 00:45:28;;;;;;;10.02;5.50;;;16.70;99.90;;;;;;5006881;28;20439;-41
2022/08/05 00:47:54;;;;;;;10.10;5.75;;;16.70;99.90;;;;;;5007426;28;20037;-41
2022/08/05 00:50:20;;;;;;;10.68;6.38;;;16.70;99.90;;;;;;5007005;28;20476;-41
2022/08/05 00:52:45;;;;;;;10.98;6.60;;;16.70;99.90;;;;;;5005854;28;20054;-42
2022/08/05 00:55:11;;;;;;;12.45;6.15;;;16.70;99.90;;;;;;5007647;28;20049;-41
2022/08/05 00:57:37;;;;;;;13.68;7.90;;;16.70;99.90;;;;;;5007167;28;20048;-42
2022/08/05 01:00:04;;;;;;;13.77;7.57;;;17.00;99.90;;;;;;5007031;28;20435;-41
2022/08/05 01:02:29;;;;;;;14.35;7.82;;;16.80;99.90;;;;;;5006486;28;20113;-41
2022/08/05 01:04:55;;;;;;;12.32;6.50;;;16.80;99.90;;;;;;5006836;28;20042;-41
2022/08/05 01:07:21;;;;;;;10.85;6.10;;;17.00;99.90;;;;;;5006347;28;20038;-41
2022/08/05 01:09:46;;;;;;;9.57;6.25;;;16.80;99.90;;;;;;5006524;28;20542;-41
2022/08/05 01:12:17;;;;;;;13.55;6.88;;;16.80;99.90;;;;;;5006416;28;20049;-41
2022/08/05 01:14:52;;;;;;;12.20;6.45;;;16.80;99.90;;;;;;5005737;28;20072;-41
2022/08/05 01:17:31;;;;;;;8.85;5.95;;;16.90;99.90;;;;;;5006717;28;20519;-41
2022/08/05 01:20:15;;;;;;;9.68;6.55;;;16.90;99.90;;;;;;5006819;28;20060;-42
2022/08/05 01:22:53;;;;;;;7.43;6.20;;;16.80;99.90;;;;;;5006447;28;20429;-41
2022/08/05 01:25:39;;;;;;;10.85;6.55;;;16.90;99.90;;;;;;5006592;28;20702;-42
2022/08/05 01:28:26;;;;;;;12.95;5.70;;;16.90;99.90;;;;;;5006138;28;20038;-41
2022/08/05 01:31:08;;;;;;;8.48;5.10;;;16.90;99.90;;;;;;5005863;28;20038;-41
2022/08/05 01:33:45;;;;;;;10.15;5.70;;;16.90;99.90;;;;;;5005630;28;20480;-42
2022/08/05 01:36:16;;;;;;;6.30;5.63;;;16.80;99.90;;;;;;5005582;28;20038;-42
2022/08/05 01:38:45;;;;;;;8.50;6.25;;;16.90;99.90;;;;;;5005324;28;20388;-42
2022/08/05 01:41:15;;;;;;;7.78;5.30;;;16.90;99.90;;;;;;5005100;28;20415;-41
2022/08/05 01:43:42;;;;;;;7.80;5.10;;;16.90;99.90;;;;;;5005625;28;20045;-41
2022/08/05 01:46:08;;;;;;;9.55;5.82;;;16.80;99.90;;;;;;5006438;28;20038;-42
2022/08/05 01:48:35;;;;;;;9.20;5.68;;;16.80;99.90;;;;;;5006355;28;20058;-41
2022/08/05 01:51:03;;;;;;;8.57;5.53;;;16.80;99.90;;;;;;5005099;28;20049;-42
2022/08/05 01:53:33;;;;;;;12.75;5.88;;;16.80;99.90;;;;;;5006607;28;20567;-41
2022/08/05 01:56:02;;;;;;;7.28;4.80;;;16.80;99.90;;;;;;5007247;28;20050;-42
2022/08/05 01:58:29;;;;;;;7.90;5.32;;;17.00;99.90;;;;;;5006694;28;20045;-41
2022/08/05 02:00:57;;;;;;;8.40;4.88;;;16.80;99.90;;;;;;5006375;28;20057;-41
2022/08/05 02:03:32;;;;;;;9.77;5.38;;;16.80;99.90;;;;;;5006294;28;20030;-41
2022/08/05 02:06:00;;;;;;;7.00;5.30;;;16.80;99.90;;;;;;5005862;28;20122;-41
2022/08/05 02:08:26;;;;;;;7.30;4.45;;;16.80;99.90;;;;;;5006243;28;20387;-41
2022/08/05 02:10:55;;;;;;;7.00;4.85;;;16.90;99.90;;;;;;5006586;28;20069;-41
2022/08/05 02:13:32;;;;;;;8.35;4.90;;;16.90;99.90;;;;;;5006449;28;20060;-42
2022/08/05 02:16:12;;;;;;;8.05;4.75;;;16.90;99.90;;;;;;5005973;28;20054;-41
2022/08/05 02:18:42;;;;;;;9.55;4.25;;;16.90;99.90;;;;;;5006335;28;20050;-41
2022/08/05 02:21:15;;;;;;;10.35;4.40;;;16.90;99.90;;;;;;5006431;28;20057;-41
2022/08/05 02:23:45;;;;;;;8.40;4.25;;;16.90;99.90;;;;;;5006189;28;20116;-41
2022/08/05 02:26:14;;;;;;;7.00;4.80;;;16.90;99.90;;;;;;5008795;28;20085;-41
2022/08/05 02:28:43;;;;;;;10.85;4.65;;;16.90;99.90;;;;;;5010078;28;20045;-42
2022/08/05 02:31:14;;;;;;;10.85;5.30;;;16.90;99.90;;;;;;5010180;28;20046;-41
2022/08/05 02:33:47;;;;;;;6.78;4.10;;;16.80;99.90;;;;;;5009601;28;20112;-41
2022/08/05 02:36:17;;;;;;;9.50;4.43;;;16.80;99.90;;;;;;5009633;28;20107;-41
2022/08/05 02:38:46;;;;;;;7.63;4.20;;;16.80;99.90;;;;;;5009923;28;20381;-41
2022/08/05 02:41:14;;;;;;;10.48;4.40;;;16.70;99.90;;;;;;5009997;28;20107;-42
2022/08/05 02:43:40;;;;;;;6.00;4.20;;;17.00;99.90;;;;;;5010254;28;20050;-41
2022/08/05 02:46:06;;;;;;;7.35;4.13;;;17.00;99.90;;;;;;5010034;28;20072;-41
2022/08/05 02:48:33;;;;;;;8.80;5.03;;;16.80;99.90;;;;;;5009200;28;20034;-41
2022/08/05 02:51:00;;;;;;;6.38;4.90;;;16.80;99.90;;;;;;5009293;28;20439;-42
2022/08/05 02:53:28;;;;;;;7.93;4.88;;;16.80;99.90;;;;;;5009101;28;20408;-41
2022/08/05 02:55:55;;;;;;;6.18;4.00;;;16.80;99.90;;;;;;5007297;28;20322;-41
2022/08/05 02:58:22;;;;;;;6.93;4.20;;;16.70;99.90;;;;;;5009035;28;20056;-41
2022/08/05 03:00:49;;;;;;;8.38;4.72;;;16.80;99.90;;;;;;5008921;28;20368;-44
2022/08/05 03:03:19;;;;;;;7.65;4.45;;;16.70;99.90;;;;;;5009097;28;20046;-41
2022/08/05 03:05:47;;;;;;;6.90;4.20;;;16.80;99.90;;;;;;5008790;28;20042;-42
2022/08/05 03:08:13;;;;;;;7.25;4.20;;;16.80;99.90;;;;;;5009168;28;20113;-43
2022/08/05 03:10:42;;;;;;;8.68;5.03;;;16.80;99.90;;;;;;5008821;28;20057;-41
2022/08/05 03:13:15;;;;;;;5.45;4.15;;;16.80;99.90;;;;;;5008667;28;20053;-41
2022/08/05 03:15:46;;;;;;;7.82;4.30;;;16.90;99.90;;;;;;5009165;28;20376;-42
2022/08/05 03:18:11;;;;;;;7.45;4.78;;;16.80;99.90;;;;;;5009069;28;20054;-42
2022/08/05 03:20:38;;;;;;;8.98;4.65;;;16.80;99.90;;;;;;5007193;28;20053;-41
2022/08/05 03:23:08;;;;;;;9.13;4.95;;;16.80;99.90;;;;;;5008661;28;20060;-41
2022/08/05 03:25:36;;;;;;;7.00;4.47;;;17.00;99.90;;;;;;5008831;28;20068;-41
2022/08/05 03:28:03;;;;;;;7.18;4.50;;;16.80;99.90;;;;;;5008486;28;20404;-41
2022/08/05 03:30:33;;;;;;;7.10;4.85;;;16.70;99.90;;;;;;5008535;28;20708;-42
2022/08/05 03:33:03;;;;;;;8.40;4.63;;;16.70;99.90;;;;;;5008251;28;20061;-41
2022/08/05 03:35:29;;;;;;;10.05;5.35;;;16.70;99.90;;;;;;5008810;28;20088;-41
2022/08/05 03:37:59;;;;;;;8.55;4.93;;;17.00;99.90;;;;;;5007367;28;20607;-41
2022/08/05 03:40:25;;;;;;;5.97;4.38;;;16.70;99.90;;;;;;5008576;28;20056;-41
2022/08/05 03:42:51;;;;;;;8.57;5.53;;;16.70;99.90;;;;;;5008467;28;20046;-42
2022/08/05 03:45:17;;;;;;;8.00;5.00;;;16.70;99.90;;;;;;5008602;28;20041;-41
2022/08/05 03:47:43;;;;;;;6.35;4.35;;;16.70;99.90;;;;;;5008220;28;20392;-41
2022/08/05 03:50:08;;;;;;;11.18;4.78;;;16.70;99.90;;;;;;5008510;28;20108;-41
2022/08/05 03:52:56;;;;;;;8.68;4.32;;;16.70;99.90;;;;;;5008255;28;20050;-41
2022/08/05 03:55:26;;;;;;;11.50;4.18;;;16.60;99.90;;;;;;5008113;28;20515;-41
2022/08/05 03:57:54;;;;;;;5.75;4.15;;;16.60;99.90;;;;;;5008250;28;20041;-41
2022/08/05 04:00:25;;;;;;;6.80;4.25;;;16.60;99.90;;;;;;5008434;28;20096;-41
2022/08/05 04:02:53;;;;;;;6.32;4.22;;;16.60;99.90;;;;;;5007883;28;20045;-41
2022/08/05 04:05:20;;;;;;;5.72;4.20;;;16.50;99.90;;;;;;5007907;28;20096;-42
2022/08/05 04:07:47;;;;;;;7.85;4.22;;;16.50;99.90;;;;;;5006785;28;20602;-41
2022/08/05 04:10:12;;;;;;;10.13;4.85;;;16.50;99.90;;;;;;5007577;28;20046;-41
2022/08/05 04:12:38;;;;;;;7.75;4.93;;;16.40;99.90;;;;;;5007493;28;20096;-41
2022/08/05 04:15:06;;;;;;;9.23;5.50;;;16.40;99.90;;;;;;5007377;28;20060;-41
2022/08/05 04:17:33;;;;;;;7.60;4.05;;;16.40;99.90;;;;;;5007862;28;20050;-42
2022/08/05 04:19:59;;;;;;;8.13;4.57;;;16.40;99.90;;;;;;5007465;28;20050;-41
2022/08/05 04:22:25;;;;;;;5.57;3.55;;;16.40;99.90;;;;;;5007595;28;20050;-41
2022/08/05 04:24:50;;;;;;;5.72;4.28;;;16.40;99.90;;;;;;5007569;28;20045;-41
2022/08/05 04:27:16;;;;;;;8.55;4.50;;;16.40;99.90;;;;;;5008062;28;20038;-41
2022/08/05 04:29:42;;;;;;;7.90;4.45;;;16.40;99.90;;;;;;5007645;28;20377;-42
2022/08/05 04:32:08;;;;;;;8.20;4.63;;;16.40;99.90;;;;;;5007318;28;20057;-41
2022/08/05 04:34:34;;;;;;;7.13;4.90;;;16.40;99.90;;;;;;5007930;28;20129;-41
2022/08/05 04:37:00;;;;;;;6.32;4.28;;;16.40;99.90;;;;;;5007619;28;20128;-41
2022/08/05 04:39:26;;;;;;;6.93;3.83;;;16.40;99.90;;;;;;5007407;28;20050;-41
2022/08/05 04:41:52;;;;;;;7.38;3.65;;;16.40;99.90;;;;;;5007427;28;20049;-42
2022/08/05 04:44:18;;;;;;;11.80;4.05;;;16.70;99.90;;;;;;5007574;28;20369;-41
2022/08/05 04:46:44;;;;;;;7.60;3.35;;;16.40;99.90;;;;;;5007608;28;20073;-41
2022/08/05 04:49:10;;;;;;;7.25;3.65;;;16.40;99.90;;;;;;5006867;28;20188;-41
2022/08/05 04:51:35;;;;;;;5.07;2.85;;;16.40;99.90;;;;;;5007762;28;20053;-41
2022/08/05 04:54:01;;;;;;;6.72;3.13;;;16.40;99.90;;;;;;5006826;28;20050;-43
2022/08/05 04:56:27;;;;;;;6.82;3.38;;;16.40;99.90;;;;;;5007555;28;20044;-42
2022/08/05 04:58:52;;;;;;;5.28;3.22;;;16.50;99.90;;;;;;5007090;28;20557;-41
2022/08/05 05:01:18;;;;;;;6.55;3.30;;;16.50;99.90;;;;;;5007190;28;20072;-41
2022/08/05 05:03:44;;;;;;;8.50;3.40;;;16.50;99.90;;;;;;5007426;28;20115;-41
2022/08/05 05:06:10;;;;;;;10.40;3.17;;;16.50;99.90;;;;;;5007173;28;20507;-41
2022/08/05 05:08:37;;;;;;;6.97;3.00;;;16.60;99.90;;;;;;5007633;28;20042;-41
2022/08/05 05:11:03;;;;;;;8.95;3.60;;;16.40;99.90;;;;;;5007119;28;20052;-41
2022/08/05 05:13:29;;;;;;;8.32;2.83;;;16.60;99.90;;;;;;5007137;28;20084;-41
2022/08/05 05:15:54;;;;;;;9.32;3.72;;;16.80;99.90;;;;;;5006779;28;20139;-41
2022/08/05 05:18:20;;;;;;;7.18;3.42;;;16.60;99.90;;;;;;5007013;28;20074;-43
2022/08/05 05:20:46;;;;;;;8.20;3.42;;;16.70;99.90;;;;;;5006768;28;20045;-41
2022/08/05 05:23:12;;;;;;;9.15;3.65;;;16.80;99.90;;;;;;5006452;28;20644;-43
2022/08/05 05:25:42;;;;;;;11.82;4.30;;;16.90;99.90;;;;;;5006717;28;20088;-42
2022/08/05 05:28:09;;;;;;;11.77;3.75;;;16.90;99.90;;;;;;5006504;28;20107;-41
2022/08/05 05:30:35;;;;;;;8.40;3.65;;;17.00;99.90;;;;;;5006601;28;20049;-41
2022/08/05 05:33:03;;;;;;;6.28;3.47;;;17.10;99.90;;;;;;5006126;28;20054;-41
2022/08/05 05:35:33;;;;;;;7.38;3.78;;;17.00;99.90;;;;;;5006500;28;20050;-43
2022/08/05 05:38:01;;;;;;;5.10;3.20;;;17.20;99.90;;;;;;5006236;28;20061;-41
2022/08/05 05:40:29;;;;;;;3.60;2.83;;;17.20;99.90;;;;;;5006088;28;20046;-41
2022/08/05 05:42:55;;;;;;;5.05;3.20;;;17.30;99.90;;;;;;5006289;28;20092;-41
2022/08/05 05:45:21;;;;;;;7.22;3.55;;;17.40;99.90;;;;;;5006444;28;20125;-41
2022/08/05 05:47:47;;;;;;;8.95;3.90;;;17.70;99.90;;;;;;5006406;28;20078;-41
2022/08/05 05:50:15;;;;;;;9.45;3.50;;;17.50;99.90;;;;;;5006239;28;20050;-41
2022/08/05 05:52:42;;;;;;;4.20;2.67;;;17.60;99.90;;;;;;5006542;28;20080;-41
2022/08/05 05:55:13;;;;;;;9.50;3.20;;;17.60;99.90;;;;;;5005902;28;20045;-41
2022/08/05 05:57:40;;;;;;;10.68;3.38;;;17.70;99.90;;;;;;5006233;28;20050;-41
2022/08/05 06:00:08;;;;;;;10.60;3.38;;;17.70;99.90;;;;;;5007212;28;20053;-41
2022/08/05 06:02:34;;;;;;;5.93;2.67;;;17.80;99.90;;;;;;5010139;28;20550;-41
2022/08/05 06:05:00;;;;;;;7.10;3.35;;;17.70;99.90;;;;;;5010097;28;20049;-40
2022/08/05 06:07:26;;;;;;;4.10;3.00;;;17.70;99.90;;;;;;5009767;28;20045;-40
2022/08/05 06:09:52;;;;;;;5.72;2.55;;;17.70;99.90;;;;;;5009750;28;20125;-41
2022/08/05 06:12:17;;;;;;;5.88;3.38;;;17.70;99.90;;;;;;5009731;28;20128;-41
2022/08/05 06:14:43;;;;;;;5.60;2.95;;;17.70;99.90;;;;;;5009410;28;20100;-41
2022/08/05 06:17:10;;;;;;;4.38;2.60;;;17.50;99.90;;;;;;5009822;28;20058;-41
2022/08/05 06:19:36;;;;;;;6.43;3.10;;;17.50;99.90;;;;;;5009827;28;20053;-40
2022/08/05 06:22:03;;;;;;;6.85;2.90;;;17.60;99.90;;;;;;5009771;28;20123;-42
2022/08/05 06:24:30;;;;;;;4.53;2.67;;;17.80;99.90;;;;;;5009913;28;20038;-39
2022/08/05 06:26:56;;;;;;;5.55;2.70;;;18.10;99.90;;;;;;5011197;28;20747;-39
2022/08/05 06:29:22;;;;;;;7.50;2.90;;;18.30;99.90;;;;;;5010814;28;20073;-39
2022/08/05 06:31:48;;;;;;;9.02;3.13;;;18.50;99.90;;;;;;5010538;28;20107;-39
2022/08/05 06:34:13;;;;;;;7.28;3.20;;;18.60;99.90;;;;;;5010436;28;20053;-39
2022/08/05 06:36:39;;;;;;;4.50;2.67;;;18.80;99.90;;;;;;5010363;28;20042;-39
2022/08/05 06:39:04;;;;;;;5.95;2.58;;;19.00;99.90;;;;;;5010307;28;20053;-39
2022/08/05 06:41:30;;;;;;;6.00;2.17;;;19.30;99.90;;;;;;5010519;28;20050;-39
2022/08/05 06:43:56;;;;;;;7.75;1.73;;;19.60;99.90;;;;;;5010563;28;20724;-39
2022/08/05 06:46:21;;;;;;;4.10;1.42;;;19.70;99.90;;;;;;5010290;28;20046;-40
2022/08/05 06:48:47;;;;;;;3.63;1.63;;;19.90;99.90;;;;;;5010290;28;20041;-40
2022/08/05 06:51:13;;;;;;;3.60;1.77;;;20.10;99.90;;;;;;5010267;28;20081;-40
2022/08/05 06:53:38;;;;;;;4.53;2.03;;;20.10;99.90;;;;;;5010000;28;20096;-39
2022/08/05 06:56:04;;;;;;;4.38;2.08;;;20.10;99.90;;;;;;5009778;28;20052;-40
2022/08/05 06:58:31;;;;;;;5.38;2.10;;;20.10;99.90;;;;;;5010565;28;20042;-40
2022/08/05 07:01:01;;;;;;;6.03;1.38;;;20.20;99.90;;;;;;5010239;28;20403;-40
2022/08/05 07:03:27;;;;;;;4.40;1.30;;;20.30;99.90;;;;;;5010135;28;20038;-40
2022/08/05 07:05:54;;;;;;;4.28;0.93;;;20.30;99.90;;;;;;5010065;28;20050;-40
2022/08/05 07:08:21;;;;;;;2.05;0.80;;;20.40;99.90;;;;;;5009658;28;20812;-40
2022/08/05 07:10:47;;;;;;;4.05;0.90;;;20.40;99.90;;;;;;5009257;28;20443;-40
2022/08/05 07:18:43;;;;;;;4.63;0.70;;;20.80;99.90;;;;;;5009748;28;20784;-40
2022/08/05 07:21:08;;;;;;;3.58;1.05;;;21.10;99.90;;;;;;5010065;28;20056;-40
2022/08/05 07:23:34;;;;;;;4.20;0.90;;;21.40;99.90;;;;;;5009914;28;20388;-40
2022/08/05 07:26:00;;;;;;;2.67;0.57;;;21.60;99.90;;;;;;5010055;28;20045;-39
2022/08/05 07:28:26;;;;;;;4.00;0.60;;;21.70;99.90;;;;;;5009531;28;20041;-40
2022/08/05 07:30:52;;;;;;;4.00;0.80;;;21.80;99.90;;;;;;5009246;28;20042;-40
2022/08/05 07:33:20;;;;;;;3.75;0.43;;;22.10;99.90;;;;;;5009283;28;20049;-39
2022/08/05 07:35:46;;;;;;;4.80;0.40;;;22.20;99.90;;;;;;5009323;28;20380;-40
2022/08/05 07:38:12;;;;;;;1.85;0.32;;;22.30;99.90;;;;;;5009137;28;20038;-39
2022/08/05 07:40:38;;;;;;;2.15;0.50;;;22.20;99.90;;;;;;5009026;28;20128;-40
2022/08/05 07:43:04;;;;;;;2.17;0.47;;;22.10;99.90;;;;;;5009454;28;20042;-40
2022/08/05 07:45:30;;;;;;;1.85;0.40;;;22.00;99.90;;;;;;5009380;28;20077;-40
2022/08/05 07:47:56;;;;;;;2.33;0.30;;;22.00;99.90;;;;;;5008923;28;20408;-40
2022/08/05 07:50:21;;;;;;;3.10;0.30;;;21.90;99.90;;;;;;5008906;28;20049;-40
2022/08/05 07:52:47;;;;;;;1.45;0.20;;;21.80;99.90;;;;;;5009045;28;20133;-40
2022/08/05 07:55:13;;;;;;;3.63;0.40;;;21.80;99.90;;;;;;5008561;28;20476;-40
2022/08/05 07:57:38;;;;;;;3.30;0.68;;;22.80;99.90;;;;;;5009257;28;20123;-40
2022/08/05 08:00:05;;;;;;;3.75;0.50;;;23.10;99.90;;;;;;5009524;28;20139;-40
2022/08/05 08:02:31;;;;;;;3.92;0.88;;;23.20;99.20;;;;;;5008581;28;20053;-40
2022/08/05 08:04:57;;;;;;;3.30;0.30;;;23.20;98.10;;;;;;5008838;28;20041;-40
2022/08/05 08:07:23;;;;;;;3.53;0.40;;;23.30;97.90;;;;;;5008644;28;20365;-40
2022/08/05 08:09:50;;;;;;;1.77;0.22;;;23.40;97.10;;;;;;5009147;28;20060;-40
2022/08/05 08:12:15;;;;;;;1.05;0.22;;;23.80;96.90;;;;;;5008320;28;20522;-40
2022/08/05 08:14:42;;;;;;;1.30;0.28;;;23.80;97.10;;;;;;5008658;28;20104;-40
2022/08/05 08:17:09;;;;;;;4.28;0.40;;;23.80;96.90;;;;;;5008307;28;20037;-40
2022/08/05 08:19:39;;;;;;;4.13;0.52;;;23.60;96.70;;;;;;5008194;28;20045;-40
2022/08/05 08:22:06;;;;;;;2.72;0.30;;;23.60;95.70;;;;;;5008654;28;20127;-40
2022/08/05 08:24:31;;;;;;;1.55;0.40;;;23.80;95.00;;;;;;5007677;28;20519;-40
2022/08/05 08:26:57;;;;;;;3.15;0.20;;;24.60;94.90;;;;;;5008366;28;20046;-40
2022/08/05 08:29:23;;;;;;;3.22;0.20;;;25.60;94.30;;;;;;5008266;28;20049;-40
2022/08/05 08:31:50;;;;;;;1.83;0.20;;;26.40;92.50;;;;;;5008405;28;20476;-41
2022/08/05 08:34:22;;;;;;;2.50;0.30;;;27.30;90.80;;;;;;5008468;28;20049;-40
2022/08/05 08:36:47;;;;;;;1.45;0.43;;;27.50;88.30;;;;;;5008047;28;20567;-40
2022/08/05 08:39:16;;;;;;;2.90;0.10;;;27.20;87.10;;;;;;5007583;28;20041;-41
2022/08/05 08:41:46;;;;;;;3.10;0.20;;;26.60;86.60;;;;;;5008016;28;20080;-40
2022/08/05 08:44:14;;;;;;;1.30;0.27;;;26.50;85.10;;;;;;5008290;28;20041;-40
2022/08/05 08:46:42;;;;;;;3.92;0.20;;;26.60;85.30;;;;;;5007876;28;20176;-40
2022/08/05 08:49:09;;;;;;;2.92;0.20;;;26.60;84.70;;;;;;5007947;28;20114;-40
2022/08/05 08:51:37;;;;;;;2.90;0.30;;;26.60;83.70;;;;;;5007709;28;20057;-40
2022/08/05 08:54:03;;;;;;;1.13;0.10;;;26.30;82.40;;;;;;5007924;28;20082;-40
2022/08/05 08:56:31;;;;;;;1.58;0.17;;;26.20;82.80;;;;;;5007137;28;20641;-40
2022/08/05 08:58:58;;;;;;;1.45;0.10;;;26.30;83.00;;;;;;5007246;28;20041;-40
2022/08/05 09:01:24;;;;;;;1.95;0.10;;;26.20;82.70;;;;;;5007193;28;20041;-40
2022/08/05 09:03:52;;;;;;;2.10;0.10;;;26.00;84.80;;;;;;5007488;28;20554;-40
2022/08/05 09:06:19;;;;;;;1.73;0.30;;;25.80;89.60;;;;;;5007334;28;20042;-40
2022/08/05 09:08:44;;;;;;;1.00;0.10;;;25.50;88.50;;;;;;5007369;28;20034;-40
2022/08/05 09:11:12;;;;;;;2.17;0.20;;;25.40;87.30;;;;;;5007792;28;20041;-40
2022/08/05 09:13:37;;;;;;;1.33;0.15;;;25.40;88.60;;;;;;5006853;28;20050;-41
2022/08/05 09:16:07;;;;;;;1.30;0.10;;;25.30;88.90;;;;;;5007584;28;20133;-40
2022/08/05 09:18:35;;;;;;;3.35;0.20;;;25.40;88.60;;;;;;5007676;28;20132;-40
2022/08/05 09:21:01;;;;;;;2.55;0.30;;;25.60;89.70;;;;;;5006495;28;20050;-40
2022/08/05 09:23:26;;;;;;;1.95;0.10;;;25.80;89.00;;;;;;5007343;28;20092;-40
2022/08/05 09:26:10;;;;;;;2.65;0.55;;;26.00;88.40;;;;;;5007383;28;20472;-40
2022/08/05 09:28:37;;;;;;;2.88;0.20;;;25.80;84.70;;;;;;5007421;28;20077;-40
2022/08/05 09:31:06;;;;;;;1.38;0.20;;;25.70;85.90;;;;;;5007507;28;20120;-40
2022/08/05 09:33:50;;;;;;;5.88;1.00;;;25.80;85.60;;;;;;5007391;28;20049;-40
2022/08/05 09:36:16;;;;;;;1.08;0.13;;;25.90;86.50;;;;;;5007438;28;20084;-40
2022/08/05 09:39:04;;;;;;;1.10;0.10;;;26.20;85.30;;;;;;5007382;28;20042;-40
2022/08/05 09:41:30;;;;;;;2.55;0.20;;;26.60;84.50;;;;;;5008111;28;20042;-40
2022/08/05 09:43:55;;;;;;;1.73;0.20;;;26.70;82.20;;;;;;5008167;28;20373;-40
2022/08/05 09:46:27;;;;;;;4.47;0.20;;;26.50;81.80;;;;;;5007389;28;20041;-39
2022/08/05 09:48:54;;;;;;;3.47;0.20;;;26.20;82.40;;;;;;5007268;28;20042;-40
2022/08/05 09:51:37;;;;;;;2.30;0.20;;;26.20;83.50;;;;;;5005896;28;20729;-40
2022/08/05 09:54:07;;;;;;;3.00;0.20;;;26.20;83.40;;;;;;5007067;28;20122;-40
2022/08/05 09:56:37;;;;;;;4.45;0.10;;;26.30;83.70;;;;;;5007004;28;20077;-40
2022/08/05 09:59:09;;;;;;;1.15;0.10;;;26.40;82.60;;;;;;5006860;28;20117;-40
2022/08/05 10:01:39;;;;;;;3.40;0.10;;;26.40;79.60;;;;;;5006491;28;20046;-40
2022/08/05 10:04:12;;;;;;;2.30;0.08;;;26.10;81.30;;;;;;5006864;28;20156;-40
2022/08/05 10:06:51;;;;;;;3.50;0.13;;;25.90;81.30;;;;;;5006920;28;20042;-40
2022/08/05 10:09:21;;;;;;;1.05;0.10;;;25.80;80.80;;;;;;5007330;28;20046;-40
2022/08/05 10:11:48;;;;;;;1.58;0.10;;;25.90;79.80;;;;;;5005930;28;20128;-40
2022/08/05 10:14:25;;;;;;;1.40;0.10;;;26.30;79.40;;;;;;5006553;28;20069;-40
2022/08/05 10:16:55;;;;;;;0.50;0.10;;;27.20;75.90;;;;;;5006683;28;20056;-40
2022/08/05 10:19:21;;;;;;;1.13;0.00;;;27.90;75.60;;;;;;5021566;28;20496;-40
2022/08/05 10:21:48;;;;;;;1.27;0.10;;;27.70;74.10;;;;;;5007025;28;20053;-40
2022/08/05 10:24:16;;;;;;;1.25;0.10;;;27.40;73.20;;;;;;5007479;28;20054;-40
2022/08/05 10:26:43;;;;;;;1.48;0.10;;;28.10;72.70;;;;;;5007059;28;20048;-40
2022/08/05 10:29:09;;;;;;;1.10;0.00;;;29.50;71.70;;;;;;5007179;28;20050;-40
2022/08/05 10:31:38;;;;;;;1.38;0.10;;;31.00;68.80;;;;;;5006554;28;20061;-40
2022/08/05 10:34:06;;;;;;;2.50;0.10;;;32.10;66.60;;;;;;5007047;28;20049;-40
2022/08/05 10:36:33;;;;;;;1.65;0.05;;;32.80;64.10;;;;;;5006831;28;20060;-40
2022/08/05 10:39:04;;;;;;;1.80;0.22;;;33.10;61.80;;;;;;5006831;28;20048;-40
2022/08/05 10:41:55;;;;;;;2.33;0.10;;;33.30;62.00;;;;;;5006718;28;20138;-40
2022/08/05 10:44:23;;;;;;;1.65;0.10;;;33.50;61.40;;;;;;5005761;28;20046;-40
2022/08/05 10:46:54;;;;;;;1.35;0.10;;;34.00;61.00;;;;;;5005044;28;20050;-40
2022/08/05 10:49:21;;;;;;;;;;;34.00;59.10;;;;;;5011112;28;20050;-40
2022/08/05 10:51:49;;;;;;;2.42;0.10;;;33.90;61.10;;;;;;5010605;28;19924;-40
2022/08/05 10:54:16;;;;;;;0.47;0.00;;;34.00;58.80;;;;;;5010979;28;20392;-40
2022/08/05 10:56:49;;;;;;;0.82;0.10;;;33.40;58.50;;;;;;5009601;28;20057;-40
2022/08/05 10:59:24;;;;;;;0.90;0.15;;;32.10;56.40;;;;;;5010576;28;20042;-40
2022/08/05 11:02:12;;;;;;;0.65;0.00;;;30.80;55.80;;;;;;5010632;28;20225;-40
2022/08/05 11:04:53;;;;;;;1.05;0.00;;;29.90;57.80;;;;;;5009577;28;20508;-40
2022/08/05 11:07:20;;;;;;;3.80;0.10;;;28.90;59.50;;;;;;5010136;28;20046;-40
2022/08/05 11:09:53;;;;;;;0.63;0.10;;;28.20;61.50;;;;;;5009695;28;20125;-40
2022/08/05 11:12:37;;;;;;;1.65;0.08;;;27.80;61.70;;;;;;5010263;28;20046;-40
2022/08/05 11:15:15;;;;;;;1.90;0.00;;;27.40;60.70;;;;;;5009639;28;20092;-40
2022/08/05 11:17:43;;;;;;;3.47;0.10;;;26.90;60.60;;;;;;5009636;28;20446;-40
2022/08/05 11:20:56;;;;;;;2.17;0.00;;;26.70;61.20;;;;;;5009598;28;20128;-40
2022/08/05 11:23:28;;;;;;;1.45;0.05;;;26.30;59.70;;;;;;5004309;28;20058;-40
2022/08/05 11:26:06;;;;;;;1.85;0.08;;;25.70;60.60;;;;;;5007868;28;20042;-40
2022/08/05 11:28:31;;;;;;;2.20;0.10;;;25.40;59.10;;;;;;5009604;28;20116;-40
2022/08/05 11:30:57;;;;;;;1.80;0.05;;;25.10;60.90;;;;;;5009468;28;20045;-40
2022/08/05 11:33:30;;;;;;;2.88;0.65;;;24.80;61.10;;;;;;5009568;28;20073;-40
2022/08/05 11:36:06;;;;;;;0.50;0.00;;;24.60;60.80;;;;;;5008563;28;20137;-40
2022/08/05 11:38:41;;;;;;;2.67;0.00;;;24.40;61.10;;;;;;5009098;28;20100;-40
2022/08/05 11:41:12;;;;;;;3.70;0.03;;;24.20;61.40;;;;;;5008871;28;20726;-40
2022/08/05 11:43:42;;;;;;;0.85;0.00;;;24.20;61.70;;;;;;5009065;28;20038;-40
2022/08/05 11:46:07;;;;;;;1.48;0.00;;;24.10;61.70;;;;;;5009193;28;20502;-40
2022/08/05 11:48:34;;;;;;;0.93;0.00;;;24.10;61.70;;;;;;5008628;28;20046;-40
2022/08/05 11:51:00;;;;;;;1.75;0.10;;;24.10;62.10;;;;;;5008800;28;20081;-40
2022/08/05 11:53:27;;;;;;;2.22;0.40;;;24.10;61.90;;;;;;5009105;28;20053;-40
2022/08/05 11:55:55;;;;;;;1.63;0.38;;;24.10;62.00;;;;;;5008463;28;20566;-40
2022/08/05 11:58:41;;;;;;;1.17;0.08;;;24.40;61.60;;;;;;5008801;28;20088;-40
2022/08/05 12:01:11;;;;;;;0.50;0.00;;;24.80;60.50;;;;;;5009618;28;20030;-40
2022/08/05 12:03:45;;;;;;;0.35;0.00;;;24.20;59.50;;;;;;5009215;28;20077;-40
2022/08/05 12:06:13;;;;;;;0.80;0.00;;;25.20;58.60;;;;;;5009849;28;20046;-40
2022/08/05 12:08:59;;;;;;;1.98;0.10;;;25.40;59.00;;;;;;5009224;28;20049;-40
2022/08/05 12:11:29;;;;;;;0.10;0.00;;;25.80;59.30;;;;;;5008783;28;20045;-40
2022/08/05 12:14:04;;;;;;;0.82;0.28;;;25.90;58.30;;;;;;5008420;28;20050;-40
2022/08/05 12:16:34;;;;;;;0.40;0.00;;;25.90;57.30;;;;;;5007161;28;20085;-40
2022/08/05 12:19:00;;;;;;;3.17;0.05;;;25.90;57.50;;;;;;5006317;28;20121;-40
2022/08/05 12:21:32;;;;;;;1.40;0.03;;;25.90;57.70;;;;;;5008063;28;20084;-40
2022/08/05 12:24:26;;;;;;;1.45;0.00;;;25.70;57.50;;;;;;5007398;28;20117;-40
2022/08/05 12:26:53;;;;;;;1.25;0.10;;;25.70;58.00;;;;;;5005710;28;20153;-40
2022/08/05 12:29:24;;;;;;;0.90;0.03;;;25.60;58.50;;;;;;5007968;28;20377;-40
2022/08/05 12:31:51;;;;;;;1.45;0.20;;;25.60;58.70;;;;;;5008194;28;20074;-40
2022/08/05 12:34:27;;;;;;;0.98;0.10;;;25.90;59.80;;;;;;5008101;28;20041;-40
2022/08/05 12:36:57;;;;;;;1.65;0.10;;;25.80;60.10;;;;;;5007655;28;20045;-40
2022/08/05 12:39:24;;;;;;;3.20;0.35;;;25.60;61.20;;;;;;5008295;28;20123;-40
2022/08/05 12:41:50;;;;;;;3.78;0.08;;;25.40;60.80;;;;;;5007433;28;20054;-40
2022/08/05 12:44:17;;;;;;;4.72;0.10;;;25.00;61.00;;;;;;5008199;28;20048;-40
2022/08/05 12:46:51;;;;;;;4.15;0.10;;;24.80;60.90;;;;;;5006756;28;20589;-40
2022/08/05 12:49:17;;;;;;;5.15;0.05;;;24.70;60.80;;;;;;5008521;28;20045;-40
2022/08/05 12:51:48;;;;;;;3.00;0.10;;;24.60;61.40;;;;;;5008281;28;20116;-40
2022/08/05 12:54:21;;;;;;;3.90;0.10;;;24.50;61.90;;;;;;5007618;28;20060;-40
2022/08/05 12:56:59;;;;;;;1.77;0.25;;;24.40;61.90;;;;;;5007528;28;20046;-40
2022/08/05 12:59:30;;;;;;;3.42;0.10;;;24.30;62.60;;;;;;5008230;28;20045;-39